sensor_id;sensor_type;location;lat;lon;timestamp;pressure;altitude;pressure_sealevel;temperature;humidity
23223;BME280;11780;13.904;100.620;2023-07-28T00:01:32;100473.75;;;32.00;60.81
23223;BME280;11780;13.904;100.620;2023-07-28T00:04:02;100470.09;;;32.08;60.27
23223;BME280;11780;13.904;100.620;2023-07-28T00:06:37;100473.38;;;32.23;60.00
23223;BME280;11780;13.904;100.620;2023-07-28T00:09:38;100472.38;;;32.27;59.52
23223;BME280;11780;13.904;100.620;2023-07-28T00:12:09;100463.41;;;32.30;59.52
23223;BME280;11780;13.904;100.620;2023-07-28T00:14:39;100468.59;;;32.32;59.54
23223;BME280;11780;13.904;100.620;2023-07-28T00:17:09;100472.22;;;32.24;59.54
23223;BME280;11780;13.904;100.620;2023-07-28T00:19:40;100475.91;;;32.15;60.30
23223;BME280;11780;13.904;100.620;2023-07-28T00:22:10;100470.56;;;32.31;59.77
23223;BME280;11780;13.904;100.620;2023-07-28T00:24:40;100477.50;;;32.38;59.70
23223;BME280;11780;13.904;100.620;2023-07-28T00:27:11;100477.28;;;32.43;59.33
23223;BME280;11780;13.904;100.620;2023-07-28T00:29:44;100481.34;;;32.45;59.22
23223;BME280;11780;13.904;100.620;2023-07-28T00:32:14;100488.63;;;32.50;58.82
23223;BME280;11780;13.904;100.620;2023-07-28T00:34:45;100482.41;;;32.53;58.76
23223;BME280;11780;13.904;100.620;2023-07-28T00:37:17;100474.53;;;32.55;58.98
23223;BME280;11780;13.904;100.620;2023-07-28T00:39:47;100481.78;;;32.47;58.95
23223;BME280;11780;13.904;100.620;2023-07-28T00:42:17;100482.16;;;32.58;58.64
23223;BME280;11780;13.904;100.620;2023-07-28T00:44:48;100492.09;;;32.59;58.82
23223;BME280;11780;13.904;100.620;2023-07-28T00:47:18;100489.69;;;32.58;58.46
23223;BME280;11780;13.904;100.620;2023-07-28T00:49:49;100487.84;;;32.62;58.53
23223;BME280;11780;13.904;100.620;2023-07-28T00:52:19;100494.84;;;32.59;58.67
23223;BME280;11780;13.904;100.620;2023-07-28T00:54:49;100497.31;;;32.61;58.59
23223;BME280;11780;13.904;100.620;2023-07-28T00:57:20;100507.31;;;32.53;58.92
23223;BME280;11780;13.904;100.620;2023-07-28T00:59:50;100500.63;;;32.54;58.64
23223;BME280;11780;13.904;100.620;2023-07-28T01:02:21;100516.34;;;32.62;58.94
23223;BME280;11780;13.904;100.620;2023-07-28T01:04:51;100507.66;;;32.64;58.47
23223;BME280;11780;13.904;100.620;2023-07-28T01:07:47;100512.88;;;32.65;58.47
23223;BME280;11780;13.904;100.620;2023-07-28T01:10:28;100524.28;;;32.64;58.56
23223;BME280;11780;13.904;100.620;2023-07-28T01:13:00;100519.56;;;32.64;58.53
23223;BME280;11780;13.904;100.620;2023-07-28T01:15:30;100531.44;;;32.65;58.56
23223;BME280;11780;13.904;100.620;2023-07-28T01:18:00;100534.69;;;32.67;58.34
23223;BME280;11780;13.904;100.620;2023-07-28T01:20:34;100525.22;;;32.68;58.80
23223;BME280;11780;13.904;100.620;2023-07-28T01:23:08;100535.97;;;32.70;58.74
23223;BME280;11780;13.904;100.620;2023-07-28T01:25:49;100546.34;;;32.73;58.75
23223;BME280;11780;13.904;100.620;2023-07-28T01:28:24;100545.88;;;32.71;59.09
23223;BME280;11780;13.904;100.620;2023-07-28T01:30:55;100560.09;;;32.69;58.90
23223;BME280;11780;13.904;100.620;2023-07-28T01:33:25;100568.88;;;32.71;59.05
23223;BME280;11780;13.904;100.620;2023-07-28T01:35:55;100573.72;;;32.74;59.11
23223;BME280;11780;13.904;100.620;2023-07-28T01:38:26;100572.78;;;32.70;59.18
23223;BME280;11780;13.904;100.620;2023-07-28T01:40:56;100573.47;;;32.67;59.19
23223;BME280;11780;13.904;100.620;2023-07-28T01:43:27;100573.25;;;32.72;59.32
23223;BME280;11780;13.904;100.620;2023-07-28T01:45:57;100581.22;;;32.74;59.01
23223;BME280;11780;13.904;100.620;2023-07-28T01:48:28;100575.66;;;32.74;59.38
23223;BME280;11780;13.904;100.620;2023-07-28T01:50:58;100591.97;;;32.75;59.14
23223;BME280;11780;13.904;100.620;2023-07-28T01:53:29;100590.81;;;32.76;58.81
23223;BME280;11780;13.904;100.620;2023-07-28T01:55:59;100586.84;;;32.65;58.85
23223;BME280;11780;13.904;100.620;2023-07-28T01:58:32;100590.19;;;32.71;59.14
23223;BME280;11780;13.904;100.620;2023-07-28T02:01:02;100581.56;;;32.72;59.49
23223;BME280;11780;13.904;100.620;2023-07-28T02:03:32;100587.56;;;32.74;59.16
23223;BME280;11780;13.904;100.620;2023-07-28T02:06:03;100595.22;;;32.77;58.86
23223;BME280;11780;13.904;100.620;2023-07-28T02:08:33;100601.44;;;32.74;58.98
23223;BME280;11780;13.904;100.620;2023-07-28T02:11:03;100599.56;;;32.78;59.19
23223;BME280;11780;13.904;100.620;2023-07-28T02:13:34;100605.47;;;32.77;58.92
23223;BME280;11780;13.904;100.620;2023-07-28T02:16:04;100600.03;;;32.80;58.94
23223;BME280;11780;13.904;100.620;2023-07-28T02:18:35;100602.53;;;32.82;58.80
23223;BME280;11780;13.904;100.620;2023-07-28T02:21:08;100600.56;;;32.83;58.99
23223;BME280;11780;13.904;100.620;2023-07-28T02:23:39;100606.91;;;32.83;58.78
23223;BME280;11780;13.904;100.620;2023-07-28T02:26:09;100599.56;;;32.78;59.03
23223;BME280;11780;13.904;100.620;2023-07-28T02:28:39;100593.25;;;32.78;59.25
23223;BME280;11780;13.904;100.620;2023-07-28T02:31:10;100586.19;;;32.80;59.18
23223;BME280;11780;13.904;100.620;2023-07-28T02:33:40;100588.50;;;32.78;59.30
23223;BME280;11780;13.904;100.620;2023-07-28T02:36:11;100586.19;;;32.80;59.34
23223;BME280;11780;13.904;100.620;2023-07-28T02:38:41;100579.81;;;32.89;59.22
23223;BME280;11780;13.904;100.620;2023-07-28T02:41:12;100573.19;;;32.81;59.41
23223;BME280;11780;13.904;100.620;2023-07-28T02:43:42;100571.69;;;32.84;59.40
23223;BME280;11780;13.904;100.620;2023-07-28T02:46:12;100580.00;;;32.84;59.06
23223;BME280;11780;13.904;100.620;2023-07-28T02:48:43;100591.56;;;32.86;59.29
23223;BME280;11780;13.904;100.620;2023-07-28T02:51:13;100583.94;;;32.83;59.36
23223;BME280;11780;13.904;100.620;2023-07-28T02:53:43;100576.56;;;32.87;59.32
23223;BME280;11780;13.904;100.620;2023-07-28T02:56:14;100580.13;;;32.87;59.24
23223;BME280;11780;13.904;100.620;2023-07-28T02:58:44;100573.13;;;32.90;59.12
23223;BME280;11780;13.904;100.620;2023-07-28T03:01:14;100580.47;;;32.86;59.13
23223;BME280;11780;13.904;100.620;2023-07-28T03:03:45;100578.19;;;32.88;59.08
23223;BME280;11780;13.904;100.620;2023-07-28T03:06:17;100580.47;;;32.86;59.02
23223;BME280;11780;13.904;100.620;2023-07-28T03:08:59;100576.09;;;32.85;58.93
23223;BME280;11780;13.904;100.620;2023-07-28T03:11:52;100578.97;;;32.88;58.95
23223;BME280;11780;13.904;100.620;2023-07-28T03:14:22;100577.50;;;32.91;59.04
23223;BME280;11780;13.904;100.620;2023-07-28T03:16:53;100576.56;;;32.87;58.98
23223;BME280;11780;13.904;100.620;2023-07-28T03:19:24;100583.03;;;32.91;58.60
23223;BME280;11780;13.904;100.620;2023-07-28T03:21:54;100576.22;;;32.88;59.15
23223;BME280;11780;13.904;100.620;2023-07-28T03:24:25;100580.75;;;32.93;58.69
23223;BME280;11780;13.904;100.620;2023-07-28T03:26:55;100585.94;;;32.94;58.72
23223;BME280;11780;13.904;100.620;2023-07-28T03:29:26;100580.59;;;32.89;58.49
23223;BME280;11780;13.904;100.620;2023-07-28T03:31:56;100584.19;;;32.90;58.38
23223;BME280;11780;13.904;100.620;2023-07-28T03:34:27;100573.22;;;32.93;58.77
23223;BME280;11780;13.904;100.620;2023-07-28T03:36:59;100589.19;;;32.97;58.23
23223;BME280;11780;13.904;100.620;2023-07-28T03:39:30;100585.59;;;32.96;58.21
23223;BME280;11780;13.904;100.620;2023-07-28T03:42:01;100583.97;;;32.95;58.34
23223;BME280;11780;13.904;100.620;2023-07-28T03:44:31;100588.34;;;32.96;58.26
23223;BME280;11780;13.904;100.620;2023-07-28T03:47:02;100583.75;;;33.00;58.08
23223;BME280;11780;13.904;100.620;2023-07-28T03:49:33;100577.63;;;32.94;57.79
23223;BME280;11780;13.904;100.620;2023-07-28T03:52:03;100574.66;;;33.00;57.82
23223;BME280;11780;13.904;100.620;2023-07-28T03:54:34;100576.13;;;32.97;58.00
23223;BME280;11780;13.904;100.620;2023-07-28T03:57:04;100557.56;;;32.98;57.86
23223;BME280;11780;13.904;100.620;2023-07-28T03:59:35;100567.59;;;33.02;57.66
23223;BME280;11780;13.904;100.620;2023-07-28T04:02:05;100565.75;;;33.06;58.02
23223;BME280;11780;13.904;100.620;2023-07-28T04:04:36;100557.66;;;33.01;57.60
23223;BME280;11780;13.904;100.620;2023-07-28T04:07:07;100563.00;;;33.06;57.70
23223;BME280;11780;13.904;100.620;2023-07-28T04:09:37;100554.69;;;33.06;57.53
23223;BME280;11780;13.904;100.620;2023-07-28T04:12:07;100561.69;;;33.04;57.63
23223;BME280;11780;13.904;100.620;2023-07-28T04:14:38;100557.44;;;33.06;57.59
23223;BME280;11780;13.904;100.620;2023-07-28T04:17:08;100546.84;;;33.08;57.57
23223;BME280;11780;13.904;100.620;2023-07-28T04:19:38;100556.50;;;33.02;57.50
23223;BME280;11780;13.904;100.620;2023-07-28T04:22:09;100556.75;;;33.09;57.18
23223;BME280;11780;13.904;100.620;2023-07-28T04:24:39;100557.22;;;33.12;57.43
23223;BME280;11780;13.904;100.620;2023-07-28T04:27:09;100564.16;;;33.18;57.18
23223;BME280;11780;13.904;100.620;2023-07-28T04:29:40;100555.38;;;33.16;56.99
23223;BME280;11780;13.904;100.620;2023-07-28T04:32:12;100554.22;;;33.17;57.31
23223;BME280;11780;13.904;100.620;2023-07-28T04:34:43;100552.13;;;33.14;57.02
23223;BME280;11780;13.904;100.620;2023-07-28T04:37:16;100549.16;;;33.19;57.04
23223;BME280;11780;13.904;100.620;2023-07-28T04:40:04;100553.88;;;33.18;56.71
23223;BME280;11780;13.904;100.620;2023-07-28T04:42:37;100561.59;;;33.13;57.32
23223;BME280;11780;13.904;100.620;2023-07-28T04:45:08;100556.66;;;33.18;57.08
23223;BME280;11780;13.904;100.620;2023-07-28T04:47:39;100548.47;;;33.22;56.80
23223;BME280;11780;13.904;100.620;2023-07-28T04:50:10;100547.53;;;33.18;56.88
23223;BME280;11780;13.904;100.620;2023-07-28T04:53:12;100536.91;;;33.20;56.82
23223;BME280;11780;13.904;100.620;2023-07-28T04:56:06;100548.56;;;33.13;57.12
23223;BME280;11780;13.904;100.620;2023-07-28T04:58:38;100546.38;;;33.19;57.01
23223;BME280;11780;13.904;100.620;2023-07-28T05:01:08;100550.78;;;33.20;57.02
23223;BME280;11780;13.904;100.620;2023-07-28T05:03:41;100539.00;;;33.23;56.85
23223;BME280;11780;13.904;100.620;2023-07-28T05:06:19;100524.31;;;33.22;56.72
23223;BME280;11780;13.904;100.620;2023-07-28T05:08:49;100520.28;;;33.20;56.64
23223;BME280;11780;13.904;100.620;2023-07-28T05:11:37;100514.06;;;33.23;56.84
23223;BME280;11780;13.904;100.620;2023-07-28T05:14:08;100512.91;;;33.24;56.67
23223;BME280;11780;13.904;100.620;2023-07-28T05:16:39;100512.91;;;33.24;56.63
23223;BME280;11780;13.904;100.620;2023-07-28T05:19:09;100491.06;;;33.22;56.54
23223;BME280;11780;13.904;100.620;2023-07-28T05:21:58;100511.41;;;33.27;56.21
23223;BME280;11780;13.904;100.620;2023-07-28T05:24:44;100504.13;;;33.22;56.34
23223;BME280;11780;13.904;100.620;2023-07-28T05:27:15;100505.84;;;33.27;56.04
23223;BME280;11780;13.904;100.620;2023-07-28T05:29:47;100499.84;;;33.24;55.92
23223;BME280;11780;13.904;100.620;2023-07-28T05:32:18;100492.31;;;33.25;55.97
23223;BME280;11780;13.904;100.620;2023-07-28T05:35:08;100491.16;;;33.26;56.12
23223;BME280;11780;13.904;100.620;2023-07-28T05:37:39;100498.59;;;33.22;56.01
23223;BME280;11780;13.904;100.620;2023-07-28T05:40:09;100489.31;;;33.30;56.01
23223;BME280;11780;13.904;100.620;2023-07-28T05:42:41;100487.25;;;33.27;56.12
23223;BME280;11780;13.904;100.620;2023-07-28T05:45:11;100492.78;;;33.27;55.80
23223;BME280;11780;13.904;100.620;2023-07-28T05:47:42;100502.25;;;33.26;56.00
23223;BME280;11780;13.904;100.620;2023-07-28T05:50:12;100487.25;;;33.27;55.89
23223;BME280;11780;13.904;100.620;2023-07-28T05:52:43;100486.56;;;33.30;55.66
23223;BME280;11780;13.904;100.620;2023-07-28T05:55:13;100484.47;;;33.27;55.95
23223;BME280;11780;13.904;100.620;2023-07-28T05:57:43;100489.22;;;33.27;55.94
23223;BME280;11780;13.904;100.620;2023-07-28T06:00:14;100470.63;;;33.27;55.85
23223;BME280;11780;13.904;100.620;2023-07-28T06:02:44;100471.06;;;33.29;55.76
23223;BME280;11780;13.904;100.620;2023-07-28T06:05:32;100472.22;;;33.28;55.73
23223;BME280;11780;13.904;100.620;2023-07-28T06:08:02;100464.38;;;33.30;56.02
23223;BME280;11780;13.904;100.620;2023-07-28T06:10:32;100466.81;;;33.32;56.08
23223;BME280;11780;13.904;100.620;2023-07-28T06:13:03;100456.06;;;33.30;55.93
23223;BME280;11780;13.904;100.620;2023-07-28T06:15:33;100458.50;;;33.32;55.96
23223;BME280;11780;13.904;100.620;2023-07-28T06:18:04;100446.41;;;33.36;55.89
23223;BME280;11780;13.904;100.620;2023-07-28T06:20:35;100444.28;;;33.33;55.88
23223;BME280;11780;13.904;100.620;2023-07-28T06:23:05;100431.94;;;33.31;56.00
23223;BME280;11780;13.904;100.620;2023-07-28T06:25:36;100439.53;;;33.34;56.15
23223;BME280;11780;13.904;100.620;2023-07-28T06:28:12;100437.81;;;33.29;56.14
23223;BME280;11780;13.904;100.620;2023-07-28T06:30:43;100430.22;;;33.38;56.04
23223;BME280;11780;13.904;100.620;2023-07-28T06:33:14;100417.84;;;33.36;55.78
23223;BME280;11780;13.904;100.620;2023-07-28T06:35:44;100419.84;;;33.35;55.93
23223;BME280;11780;13.904;100.620;2023-07-28T06:38:14;100427.00;;;33.36;55.91
23223;BME280;11780;13.904;100.620;2023-07-28T06:40:45;100421.91;;;33.38;56.02
23223;BME280;11780;13.904;100.620;2023-07-28T06:43:16;100423.06;;;33.37;55.92
23223;BME280;11780;13.904;100.620;2023-07-28T06:45:55;100411.16;;;33.37;56.17
23223;BME280;11780;13.904;100.620;2023-07-28T06:48:26;100413.34;;;33.44;55.94
23223;BME280;11780;13.904;100.620;2023-07-28T06:50:57;100422.47;;;33.44;56.06
23223;BME280;11780;13.904;100.620;2023-07-28T06:53:27;100414.50;;;33.43;55.98
23223;BME280;11780;13.904;100.620;2023-07-28T06:55:57;100401.78;;;33.42;56.00
23223;BME280;11780;13.904;100.620;2023-07-28T06:58:28;100403.75;;;33.41;56.10
23223;BME280;11780;13.904;100.620;2023-07-28T07:00:58;100398.78;;;33.47;56.19
23223;BME280;11780;13.904;100.620;2023-07-28T07:03:28;100399.47;;;33.44;56.37
23223;BME280;11780;13.904;100.620;2023-07-28T07:05:59;100394.28;;;33.42;56.25
23223;BME280;11780;13.904;100.620;2023-07-28T07:08:29;100388.84;;;33.46;56.31
23223;BME280;11780;13.904;100.620;2023-07-28T07:11:00;100391.03;;;33.52;56.04
23223;BME280;11780;13.904;100.620;2023-07-28T07:13:30;100388.72;;;33.54;56.05
23223;BME280;11780;13.904;100.620;2023-07-28T07:16:00;100377.53;;;33.51;56.10
23223;BME280;11780;13.904;100.620;2023-07-28T07:18:31;100380.63;;;33.49;55.92
23223;BME280;11780;13.904;100.620;2023-07-28T07:21:02;100379.00;;;33.48;55.99
23223;BME280;11780;13.904;100.620;2023-07-28T07:23:36;100372.13;;;33.42;56.13
23223;BME280;11780;13.904;100.620;2023-07-28T07:26:24;100369.19;;;33.51;56.06
23223;BME280;11780;13.904;100.620;2023-07-28T07:28:55;100371.97;;;33.51;55.91
23223;BME280;11780;13.904;100.620;2023-07-28T07:31:25;100373.91;;;33.50;56.19
23223;BME280;11780;13.904;100.620;2023-07-28T07:33:55;100362.84;;;33.50;56.02
23223;BME280;11780;13.904;100.620;2023-07-28T07:36:26;100363.19;;;33.49;56.29
23223;BME280;11780;13.904;100.620;2023-07-28T07:38:56;100354.88;;;33.49;56.23
23223;BME280;11780;13.904;100.620;2023-07-28T07:41:27;100346.56;;;33.49;56.26
23223;BME280;11780;13.904;100.620;2023-07-28T07:43:59;100348.63;;;33.52;56.41
23223;BME280;11780;13.904;100.620;2023-07-28T07:46:30;100336.84;;;33.55;56.37
23223;BME280;11780;13.904;100.620;2023-07-28T07:49:00;100348.63;;;33.52;56.50
23223;BME280;11780;13.904;100.620;2023-07-28T07:51:31;100341.00;;;33.49;56.69
23223;BME280;11780;13.904;100.620;2023-07-28T07:54:04;100334.66;;;33.48;56.43
23223;BME280;11780;13.904;100.620;2023-07-28T07:56:34;100343.97;;;33.56;56.50
23223;BME280;11780;13.904;100.620;2023-07-28T07:59:04;100327.84;;;33.46;56.41
23223;BME280;11780;13.904;100.620;2023-07-28T08:01:35;100335.56;;;33.52;56.31
23223;BME280;11780;13.904;100.620;2023-07-28T08:04:05;100332.78;;;33.52;56.69
23223;BME280;11780;13.904;100.620;2023-07-28T08:06:36;100326.56;;;33.55;56.46
23223;BME280;11780;13.904;100.620;2023-07-28T08:09:06;100336.84;;;33.55;56.34
23223;BME280;11780;13.904;100.620;2023-07-28T08:11:37;100330.94;;;33.57;56.07
23223;BME280;11780;13.904;100.620;2023-07-28T08:14:07;100335.38;;;33.45;56.23
23223;BME280;11780;13.904;100.620;2023-07-28T08:16:37;100334.78;;;33.52;56.10
23223;BME280;11780;13.904;100.620;2023-07-28T08:19:08;100327.25;;;33.52;55.98
23223;BME280;11780;13.904;100.620;2023-07-28T08:21:39;100320.63;;;33.57;55.93
23223;BME280;11780;13.904;100.620;2023-07-28T08:24:09;100331.31;;;33.55;55.64
23223;BME280;11780;13.904;100.620;2023-07-28T08:26:39;100328.06;;;33.53;55.95
23223;BME280;11780;13.904;100.620;2023-07-28T08:29:10;100317.69;;;33.50;55.99
23223;BME280;11780;13.904;100.620;2023-07-28T08:31:40;100316.63;;;33.54;55.74
23223;BME280;11780;13.904;100.620;2023-07-28T08:34:11;100313.38;;;33.52;55.94
23223;BME280;11780;13.904;100.620;2023-07-28T08:36:41;100311.06;;;33.54;55.63
23223;BME280;11780;13.904;100.620;2023-07-28T08:39:12;100318.69;;;33.58;55.96
23223;BME280;11780;13.904;100.620;2023-07-28T08:41:44;100310.50;;;33.49;55.88
23223;BME280;11780;13.904;100.620;2023-07-28T08:44:15;100306.50;;;33.46;55.87
23223;BME280;11780;13.904;100.620;2023-07-28T08:46:46;100310.59;;;33.52;55.97
23223;BME280;11780;13.904;100.620;2023-07-28T08:49:16;100303.91;;;33.53;55.96
23223;BME280;11780;13.904;100.620;2023-07-28T08:51:50;100297.34;;;33.46;55.95
23223;BME280;11780;13.904;100.620;2023-07-28T08:54:21;100302.66;;;33.51;56.03
23223;BME280;11780;13.904;100.620;2023-07-28T08:56:51;100294.66;;;33.49;55.80
23223;BME280;11780;13.904;100.620;2023-07-28T08:59:25;100306.59;;;33.50;55.84
23223;BME280;11780;13.904;100.620;2023-07-28T09:01:57;100303.44;;;33.51;55.89
23223;BME280;11780;13.904;100.620;2023-07-28T09:04:29;100302.56;;;33.47;55.91
23223;BME280;11780;13.904;100.620;2023-07-28T09:06:59;100294.25;;;33.47;55.87
23223;BME280;11780;13.904;100.620;2023-07-28T09:09:32;100291.34;;;33.44;56.22
23223;BME280;11780;13.904;100.620;2023-07-28T09:12:03;100287.41;;;33.45;56.01
23223;BME280;11780;13.904;100.620;2023-07-28T09:14:38;100277.00;;;33.54;55.94
23223;BME280;11780;13.904;100.620;2023-07-28T09:17:12;100277.59;;;33.47;56.17
23223;BME280;11780;13.904;100.620;2023-07-28T09:19:55;100278.50;;;33.51;55.85
23223;BME280;11780;13.904;100.620;2023-07-28T09:22:29;100268.00;;;33.45;56.01
23223;BME280;11780;13.904;100.620;2023-07-28T09:25:14;100272.31;;;33.42;55.84
23223;BME280;11780;13.904;100.620;2023-07-28T09:27:52;100275.16;;;33.46;55.82
23223;BME280;11780;13.904;100.620;2023-07-28T09:30:23;100260.59;;;33.49;56.01
23223;BME280;11780;13.904;100.620;2023-07-28T09:32:55;100268.94;;;33.49;55.51
23223;BME280;11780;13.904;100.620;2023-07-28T09:35:25;100270.78;;;33.45;55.56
23223;BME280;11780;13.904;100.620;2023-07-28T09:37:56;100265.69;;;33.47;55.23
23223;BME280;11780;13.904;100.620;2023-07-28T09:40:27;100266.94;;;33.49;55.03
23223;BME280;11780;13.904;100.620;2023-07-28T09:42:58;100265.47;;;33.52;55.07
23223;BME280;11780;13.904;100.620;2023-07-28T09:45:31;100259.34;;;33.46;54.66
23223;BME280;11780;13.904;100.620;2023-07-28T09:48:10;100275.00;;;33.38;54.81
23223;BME280;11780;13.904;100.620;2023-07-28T09:50:41;100258.53;;;33.46;54.73
23223;BME280;11780;13.904;100.620;2023-07-28T09:53:13;100262.94;;;33.47;54.65
23223;BME280;11780;13.904;100.620;2023-07-28T09:55:44;100263.38;;;33.49;54.78
23223;BME280;11780;13.904;100.620;2023-07-28T09:58:17;100257.28;;;33.43;54.34
23223;BME280;11780;13.904;100.620;2023-07-28T10:00:50;100269.63;;;33.46;54.47
23223;BME280;11780;13.904;100.620;2023-07-28T10:03:21;100267.56;;;33.43;54.12
23223;BME280;11780;13.904;100.620;2023-07-28T10:05:51;100262.47;;;33.45;54.25
23223;BME280;11780;13.904;100.620;2023-07-28T10:08:22;100270.78;;;33.45;53.87
23223;BME280;11780;13.904;100.620;2023-07-28T10:10:53;100274.38;;;33.45;53.94
23223;BME280;11780;13.904;100.620;2023-07-28T10:13:24;100264.09;;;33.46;53.74
23223;BME280;11780;13.904;100.620;2023-07-28T10:15:56;100266.75;;;33.42;53.79
23223;BME280;11780;13.904;100.620;2023-07-28T10:18:31;100255.84;;;33.49;53.71
23223;BME280;11780;13.904;100.620;2023-07-28T10:21:09;100255.75;;;33.46;53.77
23223;BME280;11780;13.904;100.620;2023-07-28T10:23:44;100247.91;;;33.48;53.55
23223;BME280;11780;13.904;100.620;2023-07-28T10:26:14;100261.06;;;33.51;53.64
23223;BME280;11780;13.904;100.620;2023-07-28T10:29:14;100255.16;;;33.52;53.53
23223;BME280;11780;13.904;100.620;2023-07-28T10:31:55;100251.13;;;33.50;53.41
23223;BME280;11780;13.904;100.620;2023-07-28T10:34:28;100248.28;;;33.46;53.31
23223;BME280;11780;13.904;100.620;2023-07-28T10:36:59;100244.69;;;33.46;53.09
23223;BME280;11780;13.904;100.620;2023-07-28T10:39:30;100244.50;;;33.38;52.99
23223;BME280;11780;13.904;100.620;2023-07-28T10:42:08;100241.91;;;33.46;53.01
23223;BME280;11780;13.904;100.620;2023-07-28T10:44:39;100254.16;;;33.45;53.08
23223;BME280;11780;13.904;100.620;2023-07-28T10:47:10;100262.13;;;33.46;53.20
23223;BME280;11780;13.904;100.620;2023-07-28T10:49:42;100252.66;;;33.47;53.10
23223;BME280;11780;13.904;100.620;2023-07-28T10:52:16;100248.97;;;33.43;53.16
23223;BME280;11780;13.904;100.620;2023-07-28T10:54:46;100245.13;;;33.48;53.39
23223;BME280;11780;13.904;100.620;2023-07-28T10:57:16;100242.16;;;33.40;53.09
23223;BME280;11780;13.904;100.620;2023-07-28T10:59:47;100248.28;;;33.46;53.24
23223;BME280;11780;13.904;100.620;2023-07-28T11:02:18;100252.66;;;33.47;53.08
23223;BME280;11780;13.904;100.620;2023-07-28T11:04:48;100256.94;;;33.45;53.29
23223;BME280;11780;13.904;100.620;2023-07-28T11:07:20;100256.00;;;33.40;53.41
23223;BME280;11780;13.904;100.620;2023-07-28T11:09:50;100269.44;;;33.38;53.39
23223;BME280;11780;13.904;100.620;2023-07-28T11:12:21;100274.84;;;33.47;53.49
23223;BME280;11780;13.904;100.620;2023-07-28T11:14:52;100268.72;;;33.42;53.60
23223;BME280;11780;13.904;100.620;2023-07-28T11:17:24;100277.03;;;33.42;53.53
23223;BME280;11780;13.904;100.620;2023-07-28T11:19:55;100283.72;;;33.40;53.53
23223;BME280;11780;13.904;100.620;2023-07-28T11:22:25;100279.81;;;33.42;53.53
23223;BME280;11780;13.904;100.620;2023-07-28T11:24:56;100294.13;;;33.44;53.48
23223;BME280;11780;13.904;100.620;2023-07-28T11:27:27;100288.13;;;33.42;53.64
23223;BME280;11780;13.904;100.620;2023-07-28T11:29:58;100288.47;;;33.40;53.34
23223;BME280;11780;13.904;100.620;2023-07-28T11:32:48;100285.81;;;33.44;53.59
23223;BME280;11780;13.904;100.620;2023-07-28T11:35:21;100290.78;;;33.38;53.66
23223;BME280;11780;13.904;100.620;2023-07-28T11:37:56;100297.50;;;33.37;53.49
23223;BME280;11780;13.904;100.620;2023-07-28T11:40:28;100295.03;;;33.48;52.63
23223;BME280;11780;13.904;100.620;2023-07-28T11:42:59;100301.56;;;33.39;52.64
23223;BME280;11780;13.904;100.620;2023-07-28T11:45:30;100296.91;;;33.44;52.36
23223;BME280;11780;13.904;100.620;2023-07-28T11:48:04;100310.66;;;33.40;52.33
23223;BME280;11780;13.904;100.620;2023-07-28T11:50:38;100304.75;;;33.42;52.83
23223;BME280;11780;13.904;100.620;2023-07-28T11:53:10;100311.47;;;33.40;52.91
23223;BME280;11780;13.904;100.620;2023-07-28T11:55:41;100305.03;;;33.36;53.13
23223;BME280;11780;13.904;100.620;2023-07-28T11:58:12;100315.28;;;33.36;53.01
23223;BME280;11780;13.904;100.620;2023-07-28T12:00:42;100318.06;;;33.36;52.85
23223;BME280;11780;13.904;100.620;2023-07-28T12:03:13;100323.38;;;33.41;52.94
23223;BME280;11780;13.904;100.620;2023-07-28T12:06:04;100339.91;;;33.37;53.20
23223;BME280;11780;13.904;100.620;2023-07-28T12:08:39;100340.34;;;33.27;52.88
23223;BME280;11780;13.904;100.620;2023-07-28T12:11:15;100340.09;;;33.32;52.88
23223;BME280;11780;13.904;100.620;2023-07-28T12:14:07;100345.19;;;33.30;53.18
23223;BME280;11780;13.904;100.620;2023-07-28T12:16:46;100346.47;;;33.20;53.52
23223;BME280;11780;13.904;100.620;2023-07-28T12:19:20;100342.66;;;33.25;53.45
23223;BME280;11780;13.904;100.620;2023-07-28T12:21:51;100341.75;;;33.21;53.61
23223;BME280;11780;13.904;100.620;2023-07-28T12:24:21;100350.53;;;33.23;53.66
23223;BME280;11780;13.904;100.620;2023-07-28T12:26:51;100349.13;;;33.29;53.53
23223;BME280;11780;13.904;100.620;2023-07-28T12:29:25;100359.41;;;33.29;53.67
23223;BME280;11780;13.904;100.620;2023-07-28T12:31:58;100368.88;;;33.28;53.67
23223;BME280;11780;13.904;100.620;2023-07-28T12:34:29;100371.97;;;33.26;53.87
23223;BME280;11780;13.904;100.620;2023-07-28T12:37:18;100385.41;;;33.24;53.55
23223;BME280;11780;13.904;100.620;2023-07-28T12:40:09;100399.28;;;33.24;53.76
23223;BME280;11780;13.904;100.620;2023-07-28T12:42:43;100409.44;;;33.20;53.92
23223;BME280;11780;13.904;100.620;2023-07-28T12:45:16;100426.28;;;33.15;54.11
23223;BME280;11780;13.904;100.620;2023-07-28T12:47:49;100435.63;;;33.10;54.30
23223;BME280;11780;13.904;100.620;2023-07-28T12:50:23;100430.91;;;33.10;54.39
23223;BME280;11780;13.904;100.620;2023-07-28T12:52:54;100433.22;;;33.08;54.14
23223;BME280;11780;13.904;100.620;2023-07-28T15:09:31;100597.88;;;32.01;61.86
23223;BME280;11780;13.904;100.620;2023-07-28T15:12:01;100601.59;;;32.06;61.22